createdAt,value
2018-06-28T00:00:48.306Z,10.80
2018-06-28T00:03:16.100Z,10.40
2018-06-28T00:05:44.060Z,10.60
2018-06-28T00:08:11.965Z,13.57
2018-06-28T00:10:39.937Z,12.60
2018-06-28T00:13:07.912Z,11.63
2018-06-28T00:15:35.960Z,10.37
2018-06-28T00:18:03.912Z,10.73
2018-06-28T00:20:32.434Z,10.87
2018-06-28T00:23:00.367Z,13.53
2018-06-28T00:25:28.393Z,12.90
2018-06-28T00:27:56.278Z,9.80
2018-06-28T00:30:24.816Z,14.77
2018-06-28T00:32:53.982Z,9.63
2018-06-28T00:35:22.892Z,16.50
2018-06-28T00:37:51.622Z,13.07
2018-06-28T00:40:19.514Z,11.50
2018-06-28T00:42:47.530Z,11.70
2018-06-28T00:45:16.024Z,10.43
2018-06-28T00:47:44.001Z,10.70
2018-06-28T00:50:11.889Z,11.43
2018-06-28T00:52:39.851Z,11.80
2018-06-28T00:55:07.758Z,11.47
2018-06-28T00:57:35.682Z,11.40
2018-06-28T01:00:04.103Z,10.83
2018-06-28T01:02:32.027Z,11.10
2018-06-28T01:05:00.047Z,13.53
2018-06-28T01:07:27.986Z,10.60
2018-06-28T01:09:55.721Z,10.00
2018-06-28T01:12:23.595Z,11.03
2018-06-28T01:14:51.472Z,11.43
2018-06-28T01:17:19.401Z,10.90
2018-06-28T01:19:47.286Z,10.90
2018-06-28T01:22:15.174Z,14.60
2018-06-28T01:24:43.473Z,12.00
2018-06-28T01:27:11.187Z,14.33
2018-06-28T01:29:39.778Z,16.73
2018-06-28T01:32:07.689Z,13.33
2018-06-28T01:34:36.089Z,12.63
2018-06-28T01:37:04.084Z,11.63
2018-06-28T01:39:31.990Z,12.93
2018-06-28T01:42:11.177Z,18.23
2018-06-28T01:44:39.144Z,14.47
2018-06-28T01:47:07.729Z,17.30
2018-06-28T01:49:35.636Z,13.50
2018-06-28T01:52:03.414Z,14.50
2018-06-28T01:54:31.284Z,13.60
2018-06-28T01:56:59.197Z,14.17
2018-06-28T01:59:27.115Z,14.07
2018-06-28T02:01:55.198Z,15.07
2018-06-28T02:04:23.107Z,18.27
2018-06-28T02:06:51.036Z,15.57
2018-06-28T02:09:18.984Z,15.73
2018-06-28T02:11:47.399Z,15.77
2018-06-28T02:14:15.279Z,15.73
2018-06-28T02:16:43.250Z,17.00
2018-06-28T02:19:11.845Z,19.43
2018-06-28T02:21:39.739Z,19.93
2018-06-28T02:24:07.675Z,17.30
2018-06-28T02:26:35.596Z,22.77
2018-06-28T02:29:03.814Z,17.23
2018-06-28T02:31:33.484Z,19.70
2018-06-28T02:34:02.085Z,18.90
2018-06-28T02:36:29.995Z,19.47
2018-06-28T02:38:57.959Z,19.53
2018-06-28T02:41:25.852Z,19.80
2018-06-28T02:43:53.768Z,18.83
2018-06-28T02:46:23.293Z,25.10
2018-06-28T02:48:51.221Z,21.20
2018-06-28T02:51:19.099Z,21.70
2018-06-28T02:53:48.329Z,22.83
2018-06-28T02:56:16.223Z,21.53
2018-06-28T02:58:44.096Z,26.23
2018-06-28T03:01:12.054Z,22.17
2018-06-28T03:03:39.963Z,21.33
2018-06-28T03:06:07.699Z,20.30
2018-06-28T03:08:35.456Z,23.53
2018-06-28T03:11:03.318Z,21.87
2018-06-28T03:13:31.754Z,21.70
2018-06-28T03:15:59.683Z,21.70
2018-06-28T03:18:27.619Z,22.60
2018-06-28T03:20:55.545Z,27.70
2018-06-28T03:23:24.908Z,22.77
2018-06-28T03:25:52.679Z,27.20
2018-06-28T03:28:20.602Z,20.27
2018-06-28T03:30:49.554Z,21.73
2018-06-28T03:33:17.680Z,22.80
2018-06-28T03:35:45.609Z,24.63
2018-06-28T03:38:13.517Z,20.87
2018-06-28T03:40:41.992Z,22.10
2018-06-28T03:43:09.886Z,23.70
2018-06-28T03:45:38.928Z,24.60
2018-06-28T03:48:06.800Z,21.90
2018-06-28T03:50:34.839Z,22.77
2018-06-28T03:53:02.812Z,24.87
2018-06-28T03:55:30.667Z,20.63
2018-06-28T03:57:58.765Z,23.87
2018-06-28T04:00:26.809Z,22.40
2018-06-28T04:02:54.741Z,23.10
2018-06-28T04:05:22.672Z,24.50
2018-06-28T04:07:51.730Z,25.00
2018-06-28T04:10:19.983Z,24.70
2018-06-28T04:12:48.012Z,24.80
2018-06-28T04:15:16.067Z,25.70
2018-06-28T04:17:45.118Z,25.83
2018-06-28T04:20:13.041Z,23.07
2018-06-28T04:22:41.008Z,29.90
2018-06-28T04:25:08.968Z,24.47
2018-06-28T04:27:36.846Z,25.30
2018-06-28T04:30:04.923Z,21.43
2018-06-28T04:32:32.805Z,23.37
2018-06-28T04:35:00.689Z,21.90
2018-06-28T04:37:28.603Z,21.27
2018-06-28T04:39:56.699Z,22.87
2018-06-28T04:42:24.442Z,21.57
2018-06-28T04:44:52.529Z,30.03
2018-06-28T04:47:20.485Z,22.53
2018-06-28T04:49:48.250Z,45.07
2018-06-28T04:52:16.264Z,23.10
2018-06-28T04:54:44.172Z,24.90
2018-06-28T04:57:12.054Z,25.87
2018-06-28T04:59:40.527Z,25.07
2018-06-28T05:02:08.480Z,22.33
2018-06-28T05:04:36.287Z,22.23
2018-06-28T05:07:04.292Z,25.40
2018-06-28T05:09:32.322Z,26.53
2018-06-28T05:12:00.198Z,22.97
2018-06-28T05:14:27.937Z,24.70
2018-06-28T05:16:55.700Z,26.37
2018-06-28T05:19:23.499Z,29.20
2018-06-28T05:21:51.414Z,23.60
2018-06-28T05:24:19.322Z,25.80
2018-06-28T05:26:47.753Z,24.23
2018-06-28T05:29:15.688Z,22.67
2018-06-28T05:31:44.120Z,22.47
2018-06-28T05:34:13.117Z,23.00
2018-06-28T05:36:43.090Z,22.70
2018-06-28T05:39:12.899Z,22.37
2018-06-28T05:41:42.813Z,22.80
2018-06-28T05:44:12.279Z,21.00
2018-06-28T05:46:43.972Z,18.57
2018-06-28T05:49:12.109Z,22.50
2018-06-28T05:51:43.085Z,18.30
2018-06-28T05:54:13.185Z,26.90
2018-06-28T05:56:41.124Z,19.87
2018-06-28T05:59:08.887Z,18.73
2018-06-28T06:01:36.654Z,20.13
2018-06-28T06:04:08.925Z,25.60
2018-06-28T06:06:42.346Z,19.60
2018-06-28T06:09:12.768Z,22.80
2018-06-28T06:11:41.474Z,22.33
2018-06-28T06:14:09.472Z,18.33
2018-06-28T06:16:37.472Z,18.87
2018-06-28T06:19:10.095Z,25.63
2018-06-28T06:21:41.995Z,19.97
2018-06-28T06:24:13.175Z,18.57
2018-06-28T06:26:44.872Z,20.97
2018-06-28T06:29:14.046Z,20.43
2018-06-28T06:31:45.551Z,22.33
2018-06-28T06:34:19.850Z,20.93
2018-06-28T06:36:48.279Z,19.03
2018-06-28T06:39:19.021Z,21.67
2018-06-28T06:41:50.786Z,23.07
2018-06-28T06:44:18.994Z,21.00
2018-06-28T06:46:51.380Z,18.33
2018-06-28T06:49:22.181Z,24.90
2018-06-28T06:51:54.176Z,22.00
2018-06-28T06:54:28.017Z,22.90
2018-06-28T06:56:56.299Z,23.80
2018-06-28T06:59:25.598Z,23.40
2018-06-28T07:01:53.661Z,21.60
2018-06-28T07:04:25.395Z,22.83
2018-06-28T07:06:56.105Z,23.93
2018-06-28T07:09:25.257Z,25.10
2018-06-28T07:11:53.332Z,23.60
2018-06-28T07:14:21.918Z,23.30
2018-06-28T07:16:53.363Z,20.90
2018-06-28T07:19:28.803Z,25.90
2018-06-28T07:21:58.552Z,22.73
2018-06-28T07:24:29.395Z,30.23
2018-06-28T07:27:02.075Z,24.57
2018-06-28T07:29:34.511Z,30.53
2018-06-28T07:32:07.716Z,27.77
2018-06-28T07:34:35.984Z,25.00
2018-06-28T07:37:07.793Z,25.17
2018-06-28T07:39:36.335Z,26.70
2018-06-28T07:42:07.724Z,28.13
2018-06-28T07:44:38.822Z,23.03
2018-06-28T07:47:13.935Z,26.43
2018-06-28T07:49:41.942Z,24.43
2018-06-28T07:52:20.624Z,24.53
2018-06-28T07:54:53.428Z,26.73
2018-06-28T07:57:21.366Z,22.73
2018-06-28T07:59:49.310Z,29.87
2018-06-28T08:02:17.927Z,30.03
2018-06-28T08:04:47.010Z,28.77
2018-06-28T08:07:14.968Z,36.90
2018-06-28T08:09:43.196Z,24.07
2018-06-28T08:12:11.186Z,23.23
2018-06-28T08:14:43.394Z,25.10
2018-06-28T08:17:14.679Z,25.23
2018-06-28T08:19:43.699Z,25.03
2018-06-28T08:22:11.637Z,25.13
2018-06-28T08:24:39.660Z,23.00
2018-06-28T08:27:08.602Z,23.37
2018-06-28T08:29:36.566Z,21.63
2018-06-28T08:32:05.239Z,21.03
2018-06-28T08:34:32.984Z,25.30
2018-06-28T08:37:01.321Z,23.43
2018-06-28T08:39:29.208Z,20.60
2018-06-28T08:41:57.743Z,22.50
2018-06-28T08:44:27.015Z,25.07
2018-06-28T08:47:03.465Z,24.63
2018-06-28T08:49:38.069Z,21.03
2018-06-28T08:52:11.655Z,31.40
2018-06-28T08:54:40.047Z,25.50
2018-06-28T08:57:07.978Z,26.87
2018-06-28T08:59:35.908Z,19.30
2018-06-28T09:02:03.737Z,20.73
2018-06-28T09:04:32.242Z,23.37
2018-06-28T09:07:00.196Z,20.63
2018-06-28T09:09:28.707Z,17.53
2018-06-28T09:11:57.477Z,23.57
2018-06-28T09:14:26.016Z,20.83
2018-06-28T09:16:53.932Z,20.30
2018-06-28T09:19:27.376Z,23.80
2018-06-28T09:22:05.527Z,22.53
2018-06-28T09:24:34.928Z,22.00
2018-06-28T09:27:02.845Z,21.40
2018-06-28T09:29:31.315Z,19.77
2018-06-28T09:31:59.538Z,21.07
2018-06-28T09:34:28.208Z,20.33
2018-06-28T09:36:56.486Z,23.63
2018-06-28T09:39:25.434Z,20.77
2018-06-28T09:41:53.804Z,21.80
2018-06-28T09:44:21.948Z,25.63
2018-06-28T09:46:49.930Z,29.17
2018-06-28T09:49:19.369Z,21.63
2018-06-28T09:51:47.297Z,23.93
2018-06-28T09:54:15.265Z,22.10
2018-06-28T09:56:43.177Z,24.70
2018-06-28T09:59:11.199Z,23.83
2018-06-28T10:01:39.862Z,23.13
2018-06-28T10:04:07.888Z,22.00
2018-06-28T10:06:36.137Z,27.33
2018-06-28T10:09:06.598Z,25.00
2018-06-28T10:11:34.728Z,22.50
2018-06-28T10:14:03.709Z,21.43
2018-06-28T10:16:31.925Z,21.00
2018-06-28T10:18:59.888Z,19.47
2018-06-28T10:21:27.876Z,23.50
2018-06-28T10:23:56.085Z,20.70
2018-06-28T10:26:24.036Z,20.97
2018-06-28T10:28:51.852Z,21.50
2018-06-28T10:31:20.008Z,21.30
2018-06-28T10:33:47.936Z,20.90
2018-06-28T10:36:15.734Z,19.37
2018-06-28T10:38:43.637Z,20.60
2018-06-28T10:41:12.883Z,24.90
2018-06-28T10:43:40.808Z,28.00
2018-06-28T10:46:09.531Z,22.83
2018-06-28T10:48:37.536Z,20.07
2018-06-28T10:51:05.778Z,19.30
2018-06-28T10:53:33.759Z,19.23
2018-06-28T10:56:02.017Z,20.17
2018-06-28T10:58:29.939Z,20.67
2018-06-28T11:00:57.902Z,18.47
2018-06-28T11:03:25.795Z,18.63
2018-06-28T11:05:54.242Z,18.47
2018-06-28T11:08:23.462Z,21.37
2018-06-28T11:10:51.389Z,18.53
2018-06-28T11:13:20.005Z,18.30
2018-06-28T11:15:48.028Z,17.00
2018-06-28T11:18:16.687Z,21.03
2018-06-28T11:20:44.631Z,18.43
2018-06-28T11:23:12.804Z,16.27
2018-06-28T11:25:40.960Z,15.50
2018-06-28T11:28:08.907Z,13.90
2018-06-28T11:30:36.847Z,16.27
2018-06-28T11:33:04.806Z,14.37
2018-06-28T11:35:32.880Z,15.27
2018-06-28T11:38:00.900Z,22.63
2018-06-28T11:40:29.697Z,13.60
2018-06-28T11:42:57.624Z,15.67
2018-06-28T11:45:25.716Z,15.03
2018-06-28T11:47:53.498Z,17.40
2018-06-28T11:50:21.408Z,17.23
2018-06-28T11:52:50.035Z,12.80
2018-06-28T11:55:19.358Z,14.70
2018-06-28T11:57:48.275Z,14.47
2018-06-28T12:00:16.212Z,14.43
2018-06-28T12:02:44.407Z,13.60
2018-06-28T12:05:12.460Z,12.00
2018-06-28T12:07:40.464Z,12.73
2018-06-28T12:10:09.343Z,12.33
2018-06-28T12:12:37.474Z,15.40
2018-06-28T12:15:05.522Z,11.27
2018-06-28T12:17:33.309Z,11.50
2018-06-28T12:20:01.621Z,11.10
2018-06-28T12:22:30.315Z,13.33
2018-06-28T12:24:58.919Z,11.47
2018-06-28T12:27:26.904Z,11.07
2018-06-28T12:29:56.241Z,17.27
2018-06-28T12:32:24.211Z,11.03
2018-06-28T12:34:52.366Z,13.20
2018-06-28T12:37:20.269Z,13.87
2018-06-28T12:39:48.205Z,11.27
2018-06-28T12:42:16.271Z,19.97
2018-06-28T12:44:44.771Z,11.27
2018-06-28T12:48:04.147Z,12.90
2018-06-28T12:50:32.422Z,11.50
2018-06-28T12:53:03.158Z,12.60
2018-06-28T12:56:40.561Z,10.80
2018-06-28T12:59:12.861Z,9.90
2018-06-28T13:01:41.397Z,11.10
2018-06-28T13:04:09.361Z,11.53
2018-06-28T13:06:37.433Z,11.50
2018-06-28T13:09:08.988Z,11.47
2018-06-28T13:11:36.836Z,11.97
2018-06-28T13:14:05.371Z,12.57
2018-06-28T13:16:33.984Z,9.53
2018-06-28T13:19:02.027Z,8.90
2018-06-28T13:21:30.115Z,13.80
2018-06-28T13:23:58.168Z,17.17
2018-06-28T13:26:26.099Z,14.07
2018-06-28T13:28:54.241Z,12.73
2018-06-28T13:31:22.045Z,12.10
2018-06-28T13:33:50.022Z,12.00
2018-06-28T13:36:18.495Z,12.80
2018-06-28T13:38:46.250Z,19.20
2018-06-28T13:41:15.726Z,13.17
2018-06-28T13:43:44.214Z,15.90
2018-06-28T13:46:17.798Z,17.10
2018-06-28T13:48:46.654Z,12.13
2018-06-28T13:51:15.652Z,13.33
2018-06-28T13:53:43.654Z,13.10
2018-06-28T13:56:12.324Z,12.70
2018-06-28T13:58:40.801Z,12.23
2018-06-28T14:01:09.409Z,14.13
2018-06-28T14:03:38.401Z,17.73
2018-06-28T14:06:06.988Z,16.20
2018-06-28T14:08:35.575Z,14.90
2018-06-28T14:11:03.646Z,16.80
2018-06-28T14:13:32.207Z,15.70
2018-06-28T14:16:00.193Z,20.17
2018-06-28T14:18:28.104Z,16.10
2018-06-28T14:20:56.102Z,18.43
2018-06-28T14:23:24.884Z,14.80
2018-06-28T14:25:52.946Z,29.57
2018-06-28T14:28:20.797Z,21.60
2018-06-28T14:30:49.343Z,17.70
2018-06-28T14:33:17.323Z,18.53
2018-06-28T14:35:45.895Z,18.13
2018-06-28T14:38:13.815Z,19.80
2018-06-28T14:40:41.706Z,15.27
2018-06-28T14:43:09.489Z,16.23
2018-06-28T14:45:38.135Z,16.83
2018-06-28T14:48:06.760Z,19.73
2018-06-28T14:50:35.022Z,19.23
2018-06-28T14:53:03.046Z,19.17
2018-06-28T14:55:31.200Z,18.60
2018-06-28T14:57:59.195Z,16.13
2018-06-28T15:00:27.125Z,19.90
2018-06-28T15:02:55.910Z,18.30
2018-06-28T15:05:24.439Z,17.37
2018-06-28T15:07:53.346Z,22.07
2018-06-28T15:10:21.316Z,19.87
2018-06-28T15:12:49.827Z,27.43
2018-06-28T15:15:17.933Z,19.60
2018-06-28T15:17:46.170Z,17.07
2018-06-28T15:20:14.079Z,16.20
2018-06-28T15:22:42.023Z,17.77
2018-06-28T15:25:09.963Z,22.57
2018-06-28T15:27:38.094Z,22.63
2018-06-28T15:30:06.063Z,19.83
2018-06-28T15:32:34.007Z,21.57
2018-06-28T15:35:02.465Z,14.90
2018-06-28T15:37:30.453Z,21.87
2018-06-28T15:39:59.256Z,24.73
2018-06-28T15:42:27.212Z,26.63
2018-06-28T15:44:55.182Z,19.40
2018-06-28T15:47:23.007Z,15.97
2018-06-28T15:49:50.942Z,15.40
2018-06-28T15:52:19.045Z,16.47
2018-06-28T15:54:47.012Z,13.90
2018-06-28T15:57:14.959Z,14.70
2018-06-28T15:59:50.775Z,14.23
2018-06-28T16:02:20.715Z,20.80
2018-06-28T16:04:48.692Z,16.53
2018-06-28T16:07:16.609Z,16.53
2018-06-28T16:09:45.429Z,17.00
2018-06-28T16:12:13.762Z,17.13
2018-06-28T16:14:42.187Z,17.87
2018-06-28T16:17:10.791Z,14.43
2018-06-28T16:19:39.464Z,17.97
2018-06-28T16:22:07.354Z,15.10
2018-06-28T16:24:36.836Z,15.20
2018-06-28T16:27:05.872Z,18.10
2018-06-28T16:29:34.795Z,19.40
2018-06-28T16:32:03.256Z,20.70
2018-06-28T16:34:32.021Z,16.13
2018-06-28T16:37:00.082Z,17.63
2018-06-28T16:39:28.045Z,12.67
2018-06-28T16:41:55.984Z,15.40
2018-06-28T16:44:24.660Z,13.53
2018-06-28T16:46:52.586Z,12.60
2018-06-28T16:49:20.553Z,13.13
2018-06-28T16:51:48.557Z,14.90
2018-06-28T16:54:16.532Z,11.53
2018-06-28T16:56:44.534Z,14.30
2018-06-28T16:59:13.567Z,15.10
2018-06-28T17:01:41.605Z,14.70
2018-06-28T17:04:10.320Z,15.00
2018-06-28T17:06:38.250Z,18.07
2018-06-28T17:09:08.571Z,13.33
2018-06-28T17:11:36.736Z,14.70
2018-06-28T17:14:05.382Z,14.50
2018-06-28T17:16:34.297Z,17.20
2018-06-28T17:19:02.212Z,14.67
2018-06-28T17:21:30.009Z,14.17
2018-06-28T17:23:58.594Z,16.70
2018-06-28T17:26:26.521Z,26.30
2018-06-28T17:28:54.815Z,15.30
2018-06-28T17:31:22.569Z,15.70
2018-06-28T17:33:50.532Z,13.00
2018-06-28T17:36:18.340Z,14.27
2018-06-28T17:38:46.289Z,19.27
2018-06-28T17:41:14.195Z,16.53
2018-06-28T17:43:42.908Z,14.37
2018-06-28T17:46:10.732Z,16.67
2018-06-28T17:48:38.655Z,16.47
2018-06-28T17:51:06.956Z,20.90
2018-06-28T17:53:35.489Z,19.87
2018-06-28T17:56:04.131Z,16.17
2018-06-28T17:58:32.050Z,17.20
2018-06-28T18:01:00.079Z,18.37
2018-06-28T18:03:28.016Z,20.60
2018-06-28T18:05:55.766Z,18.73
2018-06-28T18:08:23.761Z,18.17
2018-06-28T18:10:51.798Z,21.27
2018-06-28T18:13:19.567Z,29.57
2018-06-28T18:15:47.512Z,23.17
2018-06-28T18:18:15.406Z,22.60
2018-06-28T18:20:43.912Z,23.23
2018-06-28T18:23:11.985Z,25.77
2018-06-28T18:25:39.732Z,20.87
2018-06-28T18:28:07.711Z,23.03
2018-06-28T18:30:35.680Z,20.73
2018-06-28T18:33:03.697Z,26.27
2018-06-28T18:35:31.952Z,23.63
2018-06-28T18:38:00.054Z,20.47
2018-06-28T18:40:27.715Z,24.73
2018-06-28T18:42:55.633Z,22.87
2018-06-28T18:45:23.391Z,23.77
2018-06-28T18:47:51.357Z,27.70
2018-06-28T18:50:19.124Z,20.63
2018-06-28T18:52:47.159Z,24.00
2018-06-28T18:55:15.376Z,22.23
2018-06-28T18:57:43.123Z,18.20
2018-06-28T19:00:10.934Z,19.17
2018-06-28T19:02:39.807Z,17.43
2018-06-28T19:05:07.788Z,21.07
2018-06-28T19:07:35.729Z,22.30
2018-06-28T19:10:09.248Z,22.77
2018-06-28T19:12:37.296Z,23.10
2018-06-28T19:15:12.529Z,24.87
2018-06-28T19:17:40.917Z,18.67
2018-06-28T19:20:10.009Z,23.77
2018-06-28T19:22:43.474Z,19.83
2018-06-28T19:25:11.484Z,26.43
2018-06-28T19:27:40.457Z,21.13
2018-06-28T19:30:13.950Z,23.03
2018-06-28T19:32:41.820Z,27.60
2018-06-28T19:35:09.724Z,27.47
2018-06-28T19:37:44.080Z,20.57
2018-06-28T19:40:17.608Z,26.73
2018-06-28T19:42:51.978Z,27.27
2018-06-28T19:45:22.162Z,25.40
2018-06-28T19:47:50.599Z,24.00
2018-06-28T19:50:24.074Z,27.33
2018-06-28T19:52:58.252Z,22.27
2018-06-28T19:55:26.122Z,30.97
2018-06-28T19:57:53.885Z,28.67
2018-06-28T20:00:28.528Z,26.23
2018-06-28T20:03:02.902Z,23.63
2018-06-28T20:05:30.932Z,27.60
2018-06-28T20:07:58.864Z,24.50
2018-06-28T20:10:26.844Z,27.03
2018-06-28T20:13:01.078Z,27.60
2018-06-28T20:15:46.968Z,34.17
2018-06-28T20:18:20.604Z,30.90
2018-06-28T20:20:49.254Z,29.20
2018-06-28T20:23:17.224Z,31.73
2018-06-28T20:25:45.796Z,31.13
2018-06-28T20:28:19.345Z,27.80
2018-06-28T20:30:55.069Z,29.37
2018-06-28T20:33:29.067Z,30.37
2018-06-28T20:35:57.583Z,31.73
2018-06-28T20:38:25.528Z,26.30
2018-06-28T20:40:53.895Z,28.53
2018-06-28T20:43:21.863Z,30.90
2018-06-28T20:45:50.407Z,27.57
2018-06-28T20:48:18.611Z,27.00
2018-06-28T20:50:47.129Z,33.10
2018-06-28T20:53:15.042Z,25.10
2018-06-28T20:55:43.463Z,30.07
2018-06-28T20:58:11.531Z,30.43
2018-06-28T21:00:39.460Z,29.87
2018-06-28T21:03:09.100Z,32.57
2018-06-28T21:05:37.058Z,31.50
2018-06-28T21:08:05.136Z,34.90
2018-06-28T21:10:32.881Z,32.27
2018-06-28T21:13:00.827Z,37.73
2018-06-28T21:15:28.840Z,32.90
2018-06-28T21:17:57.356Z,33.80
2018-06-28T21:20:27.312Z,31.10
2018-06-28T21:22:55.816Z,32.17
2018-06-28T21:25:23.742Z,37.60
2018-06-28T21:27:51.683Z,35.97
2018-06-28T21:30:19.575Z,40.90
2018-06-28T21:32:47.469Z,41.40
2018-06-28T21:35:15.226Z,39.40
2018-06-28T21:37:43.203Z,35.57
2018-06-28T21:40:11.140Z,38.47
2018-06-28T21:42:39.082Z,43.90
2018-06-28T21:45:07.000Z,37.97
2018-06-28T21:47:34.906Z,35.93
2018-06-28T21:50:02.853Z,33.97
2018-06-28T21:52:30.753Z,43.27
2018-06-28T21:54:58.467Z,41.97
2018-06-28T21:57:26.347Z,43.33
2018-06-28T21:59:54.097Z,40.80
2018-06-28T22:02:22.406Z,41.73
2018-06-28T22:04:50.297Z,38.03
2018-06-28T22:07:18.182Z,43.43
2018-06-28T22:09:46.111Z,38.30
2018-06-28T22:12:13.996Z,38.73
2018-06-28T22:14:41.929Z,36.10
2018-06-28T22:17:09.896Z,38.60
2018-06-28T22:19:37.852Z,38.93
2018-06-28T22:22:06.305Z,37.83
2018-06-28T22:24:34.178Z,42.07
2018-06-28T22:27:02.059Z,37.30
2018-06-28T22:29:29.944Z,45.80
2018-06-28T22:31:58.736Z,40.63
2018-06-28T22:34:26.683Z,49.13
2018-06-28T22:36:54.575Z,43.90
2018-06-28T22:39:22.457Z,40.93
2018-06-28T22:41:50.215Z,40.00
2018-06-28T22:44:18.133Z,57.47
2018-06-28T22:46:46.010Z,42.73
2018-06-28T22:49:13.932Z,48.43
2018-06-28T22:51:41.874Z,39.40
2018-06-28T22:54:10.171Z,46.30
2018-06-28T22:56:37.901Z,39.90
2018-06-28T22:59:05.980Z,41.50
2018-06-28T23:01:33.855Z,38.90
2018-06-28T23:04:01.768Z,35.50
2018-06-28T23:06:29.659Z,33.97
2018-06-28T23:08:57.588Z,32.03
2018-06-28T23:11:25.521Z,33.63
2018-06-28T23:13:53.391Z,30.20
2018-06-28T23:16:21.146Z,30.97
2018-06-28T23:18:49.022Z,26.37
2018-06-28T23:21:16.828Z,28.93
2018-06-28T23:23:44.768Z,30.00
2018-06-28T23:26:13.313Z,32.50
2018-06-28T23:28:42.009Z,23.03
2018-06-28T23:31:09.919Z,22.77
2018-06-28T23:33:38.717Z,23.07
2018-06-28T23:36:07.289Z,26.00
2018-06-28T23:38:35.976Z,23.43
2018-06-28T23:41:03.924Z,20.57
2018-06-28T23:43:31.860Z,23.10
2018-06-28T23:45:59.871Z,22.83
2018-06-28T23:48:27.776Z,21.60
2018-06-28T23:50:55.679Z,22.80
2018-06-28T23:53:23.539Z,23.00
2018-06-28T23:55:51.487Z,23.50
2018-06-28T23:58:19.924Z,28.50
